createdAt,value
2022-09-06T00:01:23.709Z,96009.40
2022-09-06T00:03:53.934Z,96008.59
2022-09-06T00:06:23.927Z,96006.34
2022-09-06T00:08:52.130Z,96005.47
2022-09-06T00:11:22.322Z,96006.17
2022-09-06T00:13:50.906Z,96004.89
2022-09-06T00:16:29.786Z,96003.81
2022-09-06T00:18:59.368Z,95996.17
2022-09-06T00:21:29.874Z,95995.90
2022-09-06T00:23:58.172Z,95996.79
2022-09-06T00:26:26.841Z,95997.22
2022-09-06T00:28:55.103Z,95995.14
2022-09-06T00:31:26.076Z,95995.76
2022-09-06T00:33:54.850Z,95994.16
2022-09-06T00:36:24.043Z,95992.96
2022-09-06T00:38:53.110Z,95994.86
2022-09-06T00:41:22.017Z,95990.56
2022-09-06T00:43:50.365Z,95985.25
2022-09-06T00:46:23.961Z,95984.11
2022-09-06T00:48:59.137Z,95981.52
2022-09-06T00:51:30.474Z,95984.58
2022-09-06T00:54:03.432Z,95985.34
2022-09-06T00:56:35.596Z,95987.96
2022-09-06T00:59:04.288Z,95988.36
2022-09-06T01:01:34.293Z,95988.36
2022-09-06T01:04:04.069Z,95988.44
2022-09-06T01:06:44.425Z,95991.77
2022-09-06T01:09:25.095Z,95992.74
2022-09-06T01:11:59.627Z,95995.48
2022-09-06T01:14:46.296Z,95993.55
2022-09-06T01:17:46.491Z,95997.99
2022-09-06T01:20:25.150Z,95997.11
2022-09-06T01:23:31.007Z,95995.45
2022-09-06T01:26:18.620Z,96002.02
2022-09-06T01:28:48.830Z,95996.57
2022-09-06T01:31:23.092Z,95995.73
2022-09-06T01:33:58.332Z,95994.46
2022-09-06T01:36:33.435Z,95996.45
2022-09-06T01:39:02.260Z,95999.26
2022-09-06T01:41:31.487Z,95997.77
2022-09-06T01:44:00.306Z,95998.60
2022-09-06T01:46:57.339Z,96000.84
2022-09-06T01:50:05.861Z,95999.60
2022-09-06T01:52:44.398Z,95999.44
2022-09-06T01:55:28.543Z,95998.05
2022-09-06T01:57:59.698Z,95999.79
2022-09-06T02:00:27.864Z,96000.10
2022-09-06T02:03:03.188Z,95995.15
2022-09-06T02:05:51.369Z,95997.24
2022-09-06T02:08:28.508Z,96000.26
2022-09-06T02:11:02.178Z,95999.14
2022-09-06T02:13:36.892Z,95998.23
2022-09-06T02:16:09.071Z,95997.67
2022-09-06T02:18:43.991Z,95999.10
2022-09-06T02:21:17.708Z,95996.86
2022-09-06T02:23:47.630Z,96002.25
2022-09-06T02:26:22.226Z,96000.95
2022-09-06T02:28:50.750Z,96003.40
2022-09-06T02:31:33.864Z,95999.71
2022-09-06T02:34:03.072Z,96004.42
2022-09-06T02:36:32.497Z,96000.41
2022-09-06T02:39:05.885Z,96005.02
2022-09-06T02:41:35.292Z,95997.91
2022-09-06T02:44:03.978Z,95992.70
2022-09-06T02:46:33.156Z,95996.78
2022-09-06T02:49:02.330Z,95996.46
2022-09-06T02:51:31.255Z,95993.79
2022-09-06T02:53:59.484Z,95993.52
2022-09-06T02:56:29.281Z,95995.60
2022-09-06T02:58:57.669Z,95995.86
2022-09-06T03:01:26.675Z,95995.05
2022-09-06T03:03:54.934Z,95993.73
2022-09-06T03:06:23.948Z,95992.14
2022-09-06T03:08:52.313Z,95987.30
2022-09-06T03:11:21.804Z,95991.75
2022-09-06T03:13:51.206Z,95995.63
2022-09-06T03:16:20.428Z,95998.41
2022-09-06T03:18:49.625Z,95996.83
2022-09-06T03:21:17.810Z,96001.54
2022-09-06T03:23:46.121Z,96008.34
2022-09-06T03:26:16.332Z,96008.91
2022-09-06T03:28:46.155Z,96007.78
2022-09-06T03:31:14.532Z,96004.49
2022-09-06T03:33:43.251Z,96001.09
2022-09-06T03:36:11.961Z,96000.96
2022-09-06T03:38:40.404Z,96001.12
2022-09-06T03:41:09.354Z,96006.86
2022-09-06T03:43:37.652Z,96005.08
2022-09-06T03:46:06.116Z,96003.15
2022-09-06T03:48:34.494Z,96006.84
2022-09-06T03:51:04.071Z,96012.81
2022-09-06T03:53:32.853Z,96010.46
2022-09-06T03:56:01.056Z,96004.91
2022-09-06T03:58:32.204Z,96000.66
2022-09-06T04:01:07.392Z,96001.44
2022-09-06T04:03:37.076Z,96007.21
2022-09-06T04:06:07.832Z,96004.39
2022-09-06T04:08:37.589Z,96001.42
2022-09-06T04:11:06.814Z,96002.94
2022-09-06T04:13:36.694Z,96004.85
2022-09-06T04:16:06.574Z,96004.52
2022-09-06T04:18:35.864Z,96003.18
2022-09-06T04:21:05.964Z,96003.28
2022-09-06T04:23:37.742Z,96001.35
2022-09-06T04:26:08.332Z,95998.99
2022-09-06T04:28:36.821Z,95997.73
2022-09-06T04:31:05.630Z,95990.33
2022-09-06T04:33:36.707Z,95991.93
2022-09-06T04:36:08.919Z,95991.55
2022-09-06T04:38:43.412Z,95995.80
2022-09-06T04:41:13.001Z,95997.81
2022-09-06T04:43:43.790Z,95994.31
2022-09-06T04:46:28.242Z,95996.33
2022-09-06T04:49:04.325Z,95999.48
2022-09-06T04:51:39.398Z,95998.59
2022-09-06T04:54:11.298Z,95997.00
2022-09-06T04:56:56.024Z,95996.89
2022-09-06T04:59:31.589Z,95994.02
2022-09-06T05:02:00.939Z,95989.86
2022-09-06T05:04:36.660Z,95990.53
2022-09-06T05:07:14.690Z,95989.80
2022-09-06T05:09:43.457Z,95985.70
2022-09-06T05:12:12.693Z,95987.30
2022-09-06T05:14:41.257Z,95985.39
2022-09-06T05:17:10.237Z,95989.61
2022-09-06T05:19:39.093Z,95989.80
2022-09-06T05:22:07.513Z,95991.11
2022-09-06T05:24:36.156Z,95987.29
2022-09-06T05:27:05.759Z,95998.87
2022-09-06T06:35:25.622Z,95974.88
2022-09-06T06:38:03.942Z,95977.17
2022-09-06T06:40:39.166Z,95974.55
2022-09-06T06:43:15.250Z,95972.14
2022-09-06T09:21:10.855Z,95948.65
2022-09-06T09:24:06.600Z,95946.52
2022-09-06T09:27:08.422Z,95944.81
2022-09-06T09:32:55.576Z,95948.62
2022-09-06T09:35:27.701Z,95941.03
2022-09-06T09:38:10.857Z,95943.17
2022-09-06T09:40:50.678Z,95944.98
2022-09-06T09:43:35.793Z,95948.11
2022-09-06T09:46:24.944Z,95945.22
2022-09-06T09:49:22.106Z,95946.66
2022-09-06T09:52:26.856Z,95946.61
2022-09-06T09:55:04.888Z,95953.36
2022-09-06T09:57:49.508Z,95952.92
2022-09-06T10:00:39.958Z,95952.23
2022-09-06T10:03:14.999Z,95949.96
2022-09-06T10:06:02.515Z,95951.46
2022-09-06T10:08:40.229Z,95950.02
2022-09-06T10:11:14.345Z,95956.24
2022-09-06T10:13:43.409Z,95952.42
2022-09-06T10:16:13.577Z,95949.98
2022-09-06T10:18:46.607Z,95944.40
2022-09-06T10:21:24.154Z,95945.86
2022-09-06T10:24:26.766Z,95946.86
2022-09-06T10:27:03.558Z,95946.80
2022-09-06T10:29:50.425Z,95945.30
2022-09-06T10:32:31.942Z,95946.89
2022-09-06T10:35:11.195Z,95949.05
2022-09-06T10:37:39.715Z,95949.23
2022-09-06T10:40:12.214Z,95948.38
2022-09-06T10:42:56.501Z,95950.37
2022-09-06T10:45:36.892Z,95948.80
2022-09-06T10:48:14.699Z,95947.81
2022-09-06T10:51:23.003Z,95947.52
2022-09-06T10:53:58.636Z,95943.80
2022-09-06T10:56:50.239Z,95945.77
2022-09-06T11:02:44.322Z,95944.36
2022-09-06T11:11:23.433Z,95950.71
2022-09-06T11:13:54.040Z,95948.62
2022-09-06T11:16:28.542Z,95945.13
2022-09-06T11:19:17.990Z,95941.30
2022-09-06T11:22:05.794Z,95942.61
2022-09-06T11:24:37.321Z,95941.02
2022-09-06T11:27:07.052Z,95941.96
2022-09-06T11:29:40.182Z,95940.83
2022-09-06T11:32:29.092Z,95939.47
2022-09-06T11:35:01.094Z,95937.17
2022-09-06T11:37:43.233Z,95934.66
2022-09-06T11:42:59.595Z,95930.91
2022-09-06T11:45:52.122Z,95928.90
2022-09-06T11:48:24.565Z,95929.89
2022-09-06T11:50:55.711Z,95926.36
2022-09-06T11:53:28.803Z,95928.73
2022-09-06T11:55:58.970Z,95921.89
2022-09-06T11:58:34.080Z,95916.93
2022-09-06T12:01:21.103Z,95912.50
2022-09-06T12:04:06.201Z,95906.10
2022-09-06T12:07:05.320Z,95897.39
2022-09-06T12:09:36.881Z,95895.63
2022-09-06T12:12:06.042Z,95893.34
2022-09-06T12:14:41.444Z,95888.30
2022-09-06T12:17:11.705Z,95887.27
2022-09-06T12:19:53.851Z,95884.27
2022-09-06T12:22:36.916Z,95878.58
2022-09-06T12:25:23.966Z,95881.72
2022-09-06T12:28:00.310Z,95874.11
2022-09-06T12:30:42.622Z,95868.99
2022-09-06T12:33:38.983Z,95869.59
2022-09-06T12:36:18.647Z,95865.51
2022-09-06T12:39:08.500Z,95858.98
2022-09-06T12:41:43.249Z,95856.67
2022-09-06T12:44:15.120Z,95849.63
2022-09-06T12:46:51.968Z,95845.66
2022-09-06T12:49:26.049Z,95849.11
2022-09-06T12:52:07.020Z,95847.67
2022-09-06T12:54:43.806Z,95840.77
2022-09-06T12:57:21.867Z,95841.63
2022-09-06T12:59:54.172Z,95839.47
2022-09-06T13:02:41.372Z,95839.15
2022-09-06T13:05:13.502Z,95836.58
2022-09-06T13:07:52.538Z,95830.34
2022-09-06T13:10:26.691Z,95831.98
2022-09-06T13:12:58.984Z,95831.13
2022-09-06T13:15:31.580Z,95827.52
2022-09-06T13:18:27.793Z,95824.52
2022-09-06T13:21:01.885Z,95827.77
2022-09-06T13:23:40.069Z,95834.23
2022-09-06T13:26:08.888Z,95834.67
2022-09-06T13:28:38.888Z,95830.00
2022-09-06T13:31:14.625Z,95827.14
2022-09-06T13:33:44.067Z,95825.23
2022-09-06T13:36:12.842Z,95822.05
2022-09-06T13:38:44.283Z,95818.59
2022-09-06T13:41:25.958Z,95817.95
2022-09-06T13:44:04.910Z,95805.58
2022-09-06T13:46:35.342Z,95811.37
2022-09-06T13:49:05.868Z,95807.98
2022-09-06T13:51:35.795Z,95808.20
2022-09-06T13:54:10.746Z,95807.80
2022-09-06T13:56:40.996Z,95807.77
2022-09-06T13:59:12.397Z,95807.15
2022-09-06T14:01:44.938Z,95806.46
2022-09-06T14:04:19.956Z,95807.14
2022-09-06T14:06:51.383Z,95805.91
2022-09-06T14:09:20.987Z,95804.47
2022-09-06T14:11:52.654Z,95803.27
2022-09-06T14:14:23.993Z,95806.17
2022-09-06T14:16:54.375Z,95804.77
2022-09-06T14:19:23.742Z,95798.36
2022-09-06T14:21:54.621Z,95797.13
2022-09-06T14:24:23.861Z,95797.44
2022-09-06T14:26:52.706Z,95795.80
2022-09-06T14:29:24.624Z,95792.92
2022-09-06T14:31:55.911Z,95794.00
2022-09-06T14:34:26.071Z,95789.77
2022-09-06T14:36:55.053Z,95783.11
2022-09-06T14:39:23.517Z,95779.58
2022-09-06T14:41:52.549Z,95783.41
2022-09-06T14:44:22.535Z,95781.90
2022-09-06T14:46:53.773Z,95779.65
2022-09-06T14:49:22.325Z,95779.48
2022-09-06T14:51:54.034Z,95777.65
2022-09-06T14:54:26.194Z,95776.06
2022-09-06T14:56:57.901Z,95774.34
2022-09-06T14:59:27.168Z,95770.40
2022-09-06T15:01:57.875Z,95773.81
2022-09-06T15:04:30.197Z,95772.26
2022-09-06T15:07:01.065Z,95771.35
2022-09-06T15:09:30.762Z,95766.69
2022-09-06T15:12:01.458Z,95771.92
2022-09-06T15:14:30.530Z,95771.14
2022-09-06T15:17:00.975Z,95767.77
2022-09-06T15:19:32.232Z,95764.36
2022-09-06T15:22:01.407Z,95765.34
2022-09-06T15:24:30.660Z,95764.35
2022-09-06T15:27:39.837Z,95762.57
2022-09-06T15:30:12.005Z,95759.61
2022-09-06T15:32:43.454Z,95765.38
2022-09-06T15:35:12.410Z,95766.70
2022-09-06T15:37:42.738Z,95769.17
2022-09-06T15:40:14.222Z,95769.79
2022-09-06T15:42:45.314Z,95762.41
2022-09-06T15:45:14.373Z,95768.79
2022-09-06T15:47:44.069Z,95767.52
2022-09-06T15:50:25.306Z,95768.42
2022-09-06T15:53:03.527Z,95768.05
2022-09-06T15:55:50.820Z,95771.98
2022-09-06T15:58:20.332Z,95773.87
2022-09-06T16:01:20.796Z,95775.12
2022-09-06T16:03:55.576Z,95773.89
2022-09-06T16:06:28.870Z,95773.41
2022-09-06T16:09:05.555Z,95769.30
2022-09-06T16:11:37.206Z,95769.84
2022-09-06T16:14:08.140Z,95770.34
2022-09-06T16:16:37.505Z,95769.65
2022-09-06T16:19:07.418Z,95768.02
2022-09-06T16:21:40.429Z,95767.75
2022-09-06T16:24:11.775Z,95765.70
2022-09-06T16:26:45.062Z,95768.00
2022-09-06T16:29:16.620Z,95766.84
2022-09-06T16:31:46.789Z,95766.29
2022-09-06T16:34:16.755Z,95764.48
2022-09-06T16:36:47.129Z,95758.66
2022-09-06T16:39:16.045Z,95759.64
2022-09-06T16:41:46.822Z,95755.46
2022-09-06T16:44:18.579Z,95761.70
2022-09-06T16:46:50.871Z,95758.15
2022-09-06T16:49:21.112Z,95757.98
2022-09-06T16:51:51.708Z,95757.91
2022-09-06T16:54:21.088Z,95752.54
2022-09-06T16:56:53.316Z,95758.23
2022-09-06T16:59:22.630Z,95759.29
2022-09-06T17:01:51.856Z,95759.19
2022-09-06T17:04:21.268Z,95757.46
2022-09-06T17:06:51.483Z,95759.35
2022-09-06T17:09:21.223Z,95759.77
2022-09-06T17:11:50.557Z,95755.27
2022-09-06T17:14:19.562Z,95756.11
2022-09-06T17:17:07.154Z,95754.43
2022-09-06T17:19:45.074Z,95760.66
2022-09-06T17:22:15.989Z,95759.48
2022-09-06T17:24:45.105Z,95767.59
2022-09-06T17:27:15.174Z,95763.25
2022-09-06T17:29:44.021Z,95771.70
2022-09-06T17:32:13.267Z,95774.11
2022-09-06T17:34:42.656Z,95771.21
2022-09-06T17:37:12.253Z,95777.05
2022-09-06T17:39:42.414Z,95778.54
2022-09-06T17:42:11.810Z,95782.99
2022-09-06T17:44:40.287Z,95785.05
2022-09-06T17:47:12.874Z,95785.25
2022-09-06T17:49:45.078Z,95786.06
2022-09-06T17:52:15.140Z,95783.10
2022-09-06T17:54:46.857Z,95787.76
2022-09-06T17:57:18.717Z,95791.85
2022-09-06T17:59:47.937Z,95792.91
2022-09-06T18:02:16.918Z,95794.61
2022-09-06T18:04:45.923Z,95802.19
2022-09-06T18:07:14.812Z,95810.06
2022-09-06T18:09:43.891Z,95811.67
2022-09-06T18:12:14.176Z,95816.56
2022-09-06T18:14:44.149Z,95819.86
2022-09-06T18:17:13.671Z,95823.69
2022-09-06T18:19:45.077Z,95827.48
2022-09-06T18:22:13.775Z,95824.05
2022-09-06T18:24:42.286Z,95821.70
2022-09-06T18:27:12.619Z,95821.77
2022-09-06T18:29:41.598Z,95822.48
2022-09-06T18:32:10.304Z,95822.36
2022-09-06T18:34:39.754Z,95824.46
2022-09-06T18:37:09.245Z,95822.37
2022-09-06T18:39:37.758Z,95825.27
2022-09-06T18:42:11.382Z,95828.58
2022-09-06T18:44:40.739Z,95829.59
2022-09-06T18:47:12.772Z,95828.28
2022-09-06T18:49:44.271Z,95826.84
2022-09-06T18:52:15.397Z,95826.95
2022-09-06T18:54:45.268Z,95819.45
2022-09-06T18:57:15.536Z,95818.95
2022-09-06T18:59:44.959Z,95821.27
2022-09-06T19:02:14.314Z,95824.73
2022-09-06T19:04:42.838Z,95825.34
2022-09-06T19:07:11.682Z,95828.05
2022-09-06T19:09:40.046Z,95829.88
2022-09-06T19:12:12.049Z,95831.61
2022-09-06T19:14:40.682Z,95831.00
2022-09-06T19:17:09.342Z,95826.36
2022-09-06T19:19:39.431Z,95826.02
2022-09-06T19:22:07.851Z,95822.95
2022-09-06T19:24:39.626Z,95824.77
2022-09-06T19:27:08.420Z,95825.48
2022-09-06T19:29:38.251Z,95833.05
2022-09-06T19:32:06.976Z,95836.27
2022-09-06T19:34:35.802Z,95832.55
2022-09-06T19:37:04.235Z,95833.70
2022-09-06T19:39:37.007Z,95826.84
2022-09-06T19:42:06.218Z,95829.21
2022-09-06T19:44:34.597Z,95824.52
2022-09-06T19:47:03.557Z,95821.84
2022-09-06T19:49:32.376Z,95822.78
2022-09-06T19:52:01.800Z,95816.59
2022-09-06T19:54:31.289Z,95814.34
2022-09-06T19:57:00.342Z,95812.52
2022-09-06T19:59:28.876Z,95817.64
2022-09-06T20:01:57.745Z,95814.79
2022-09-06T20:04:28.487Z,95812.33
2022-09-06T20:06:58.273Z,95811.56
2022-09-06T20:09:26.774Z,95804.75
2022-09-06T20:11:55.496Z,95805.39
2022-09-06T20:14:25.956Z,95803.04
2022-09-06T20:16:54.376Z,95803.14
2022-09-06T20:19:22.821Z,95800.64
2022-09-06T20:21:51.177Z,95802.50
2022-09-06T20:24:21.207Z,95800.11
2022-09-06T20:26:52.295Z,95800.64
2022-09-06T20:29:21.530Z,95801.59
2022-09-06T20:31:50.169Z,95798.41
2022-09-06T20:34:18.991Z,95801.98
2022-09-06T20:36:47.683Z,95800.50
2022-09-06T20:39:16.070Z,95792.97
2022-09-06T20:41:45.926Z,95791.85
2022-09-06T20:44:15.657Z,95791.80
2022-09-06T20:46:47.649Z,95792.98
2022-09-06T20:49:16.881Z,95790.70
2022-09-06T20:51:45.282Z,95790.34
2022-09-06T20:54:14.304Z,95783.13
2022-09-06T20:56:44.411Z,95787.98
2022-09-06T20:59:13.760Z,95787.00
2022-09-06T21:01:49.101Z,95789.63
2022-09-06T21:04:18.337Z,95788.21
2022-09-06T21:06:46.983Z,95785.81
2022-09-06T21:09:15.799Z,95782.80
2022-09-06T21:11:45.535Z,95783.77
2022-09-06T21:14:15.187Z,95782.86
2022-09-06T21:16:43.631Z,95785.78
2022-09-06T21:19:12.779Z,95781.98
2022-09-06T21:21:44.104Z,95780.96
2022-09-06T21:24:16.376Z,95778.98
2022-09-06T21:26:45.491Z,95776.73
2022-09-06T21:29:14.217Z,95772.56
2022-09-06T21:31:42.683Z,95773.90
2022-09-06T21:34:17.193Z,95777.77
2022-09-06T21:36:46.307Z,95773.50
2022-09-06T21:39:15.108Z,95772.39
2022-09-06T21:41:44.804Z,95770.75
2022-09-06T21:44:13.764Z,95773.02
2022-09-06T21:46:43.157Z,95773.52
2022-09-06T21:49:14.018Z,95767.73
2022-09-06T21:51:43.563Z,95765.10
2022-09-06T21:54:12.981Z,95759.95
2022-09-06T21:56:41.545Z,95756.30
2022-09-06T21:59:11.205Z,95754.02
2022-09-06T22:01:41.021Z,95754.04
2022-09-06T22:04:10.618Z,95752.55
2022-09-06T22:06:39.061Z,95751.56
2022-09-06T22:09:11.285Z,95756.94
2022-09-06T22:11:43.216Z,95759.50
2022-09-06T22:14:15.500Z,95759.39
2022-09-06T22:16:43.741Z,95762.10
2022-09-06T22:19:13.699Z,95758.20
2022-09-06T22:21:41.958Z,95756.70
2022-09-06T22:24:13.428Z,95758.40
2022-09-06T22:26:42.560Z,95748.20
2022-09-06T22:29:15.851Z,95744.55
2022-09-06T22:31:46.282Z,95744.77
2022-09-06T22:34:14.487Z,95741.53
2022-09-06T22:36:43.741Z,95741.84
2022-09-06T22:39:12.719Z,95743.90
2022-09-06T22:41:41.073Z,95740.84
2022-09-06T22:44:09.560Z,95743.23
2022-09-06T22:46:38.393Z,95738.27
2022-09-06T22:49:10.130Z,95737.90
2022-09-06T22:51:40.746Z,95739.30
2022-09-06T22:54:10.006Z,95738.52
2022-09-06T22:56:40.056Z,95735.77
2022-09-06T22:59:08.879Z,95735.14
2022-09-06T23:01:40.960Z,95734.14
2022-09-06T23:04:10.023Z,95731.65
2022-09-06T23:06:38.247Z,95726.29
2022-09-06T23:09:07.210Z,95728.08
2022-09-06T23:11:36.167Z,95724.77
2022-09-06T23:14:05.722Z,95728.39
2022-09-06T23:16:34.097Z,95726.55
2022-09-06T23:19:02.705Z,95727.36
2022-09-06T23:21:31.316Z,95724.34
2022-09-06T23:24:00.188Z,95723.64
2022-09-06T23:26:30.716Z,95719.49
2022-09-06T23:28:59.241Z,95715.59
2022-09-06T23:31:29.736Z,95709.80
2022-09-06T23:33:59.887Z,95705.45
2022-09-06T23:36:28.481Z,95707.42
2022-09-06T23:38:57.450Z,95703.11
2022-09-06T23:41:26.201Z,95699.96
2022-09-06T23:43:56.260Z,95704.02
2022-09-06T23:46:25.805Z,95705.48
2022-09-06T23:48:53.981Z,95702.72
2022-09-06T23:51:22.243Z,95699.30
2022-09-06T23:53:50.641Z,95702.04
2022-09-06T23:56:19.697Z,95698.46
2022-09-06T23:58:48.706Z,95691.02
